sensor_id;sensor_type;location;lat;lon;timestamp;temperature;humidity
16517;DHT22;8371;52.272;9.746;2023-05-10T00:00:00;15.00;47.20
16517;DHT22;8371;52.272;9.746;2023-05-10T00:02:25;15.00;47.50
16517;DHT22;8371;52.272;9.746;2023-05-10T00:04:52;14.90;47.30
16517;DHT22;8371;52.272;9.746;2023-05-10T00:07:17;14.90;47.50
16517;DHT22;8371;52.272;9.746;2023-05-10T00:09:43;14.90;47.60
16517;DHT22;8371;52.272;9.746;2023-05-10T00:12:09;14.80;47.70
16517;DHT22;8371;52.272;9.746;2023-05-10T00:14:35;14.80;47.70
16517;DHT22;8371;52.272;9.746;2023-05-10T00:17:01;14.80;47.70
16517;DHT22;8371;52.272;9.746;2023-05-10T00:19:26;14.80;47.90
16517;DHT22;8371;52.272;9.746;2023-05-10T00:21:52;14.80;48.10
16517;DHT22;8371;52.272;9.746;2023-05-10T00:24:18;14.80;48.00
16517;DHT22;8371;52.272;9.746;2023-05-10T00:26:43;14.80;47.90
16517;DHT22;8371;52.272;9.746;2023-05-10T00:29:10;14.80;48.10
16517;DHT22;8371;52.272;9.746;2023-05-10T00:31:35;14.80;48.30
16517;DHT22;8371;52.272;9.746;2023-05-10T00:34:01;14.80;48.30
16517;DHT22;8371;52.272;9.746;2023-05-10T00:36:27;14.80;48.50
16517;DHT22;8371;52.272;9.746;2023-05-10T00:38:53;14.70;48.60
16517;DHT22;8371;52.272;9.746;2023-05-10T00:41:19;14.70;48.90
16517;DHT22;8371;52.272;9.746;2023-05-10T00:43:46;14.70;49.00
16517;DHT22;8371;52.272;9.746;2023-05-10T00:46:13;14.70;49.10
16517;DHT22;8371;52.272;9.746;2023-05-10T00:48:39;14.60;49.10
16517;DHT22;8371;52.272;9.746;2023-05-10T00:51:05;14.60;49.20
16517;DHT22;8371;52.272;9.746;2023-05-10T00:53:31;14.60;49.50
16517;DHT22;8371;52.272;9.746;2023-05-10T00:55:59;14.50;49.40
16517;DHT22;8371;52.272;9.746;2023-05-10T00:58:25;14.50;49.40
16517;DHT22;8371;52.272;9.746;2023-05-10T01:00:54;14.50;49.40
16517;DHT22;8371;52.272;9.746;2023-05-10T01:03:20;14.50;49.40
16517;DHT22;8371;52.272;9.746;2023-05-10T01:05:46;14.50;49.40
16517;DHT22;8371;52.272;9.746;2023-05-10T01:08:12;14.40;49.50
16517;DHT22;8371;52.272;9.746;2023-05-10T01:10:37;14.40;49.70
16517;DHT22;8371;52.272;9.746;2023-05-10T01:13:03;14.40;49.80
16517;DHT22;8371;52.272;9.746;2023-05-10T01:15:30;14.40;49.80
16517;DHT22;8371;52.272;9.746;2023-05-10T01:17:56;14.40;49.80
16517;DHT22;8371;52.272;9.746;2023-05-10T01:20:23;14.30;49.80
16517;DHT22;8371;52.272;9.746;2023-05-10T01:26:14;14.30;49.90
16517;DHT22;8371;52.272;9.746;2023-05-10T01:28:50;14.30;49.90
16517;DHT22;8371;52.272;9.746;2023-05-10T01:31:21;14.30;50.00
16517;DHT22;8371;52.272;9.746;2023-05-10T01:33:51;14.20;50.00
16517;DHT22;8371;52.272;9.746;2023-05-10T01:36:28;14.20;50.10
16517;DHT22;8371;52.272;9.746;2023-05-10T01:39:03;14.20;50.20
16517;DHT22;8371;52.272;9.746;2023-05-10T01:41:35;14.20;50.30
16517;DHT22;8371;52.272;9.746;2023-05-10T01:46:58;14.20;50.30
16517;DHT22;8371;52.272;9.746;2023-05-10T01:49:27;14.20;50.30
16517;DHT22;8371;52.272;9.746;2023-05-10T01:52:06;14.20;50.30
16517;DHT22;8371;52.272;9.746;2023-05-10T01:54:24;14.20;50.40
16517;DHT22;8371;52.272;9.746;2023-05-10T01:56:52;14.20;50.50
16517;DHT22;8371;52.272;9.746;2023-05-10T01:59:19;14.30;50.60
16517;DHT22;8371;52.272;9.746;2023-05-10T02:01:47;14.30;50.60
16517;DHT22;8371;52.272;9.746;2023-05-10T02:04:16;14.30;50.60
16517;DHT22;8371;52.272;9.746;2023-05-10T02:06:43;14.30;50.60
16517;DHT22;8371;52.272;9.746;2023-05-10T02:09:11;14.30;50.70
16517;DHT22;8371;52.272;9.746;2023-05-10T02:11:39;14.40;50.70
16517;DHT22;8371;52.272;9.746;2023-05-10T02:14:07;14.40;50.70
16517;DHT22;8371;52.272;9.746;2023-05-10T02:16:35;14.40;50.70
16517;DHT22;8371;52.272;9.746;2023-05-10T02:19:02;14.50;50.80
16517;DHT22;8371;52.272;9.746;2023-05-10T02:21:29;14.50;50.80
16517;DHT22;8371;52.272;9.746;2023-05-10T02:23:57;14.50;50.80
16517;DHT22;8371;52.272;9.746;2023-05-10T02:26:24;14.50;50.90
16517;DHT22;8371;52.272;9.746;2023-05-10T02:28:51;14.50;51.00
16517;DHT22;8371;52.272;9.746;2023-05-10T02:31:19;14.60;51.20
16517;DHT22;8371;52.272;9.746;2023-05-10T02:33:47;14.60;51.40
16517;DHT22;8371;52.272;9.746;2023-05-10T02:36:13;14.60;51.60
16517;DHT22;8371;52.272;9.746;2023-05-10T02:38:40;14.60;51.70
16517;DHT22;8371;52.272;9.746;2023-05-10T02:41:07;14.60;51.90
16517;DHT22;8371;52.272;9.746;2023-05-10T02:43:35;14.50;52.00
16517;DHT22;8371;52.272;9.746;2023-05-10T02:46:01;14.50;52.00
16517;DHT22;8371;52.272;9.746;2023-05-10T02:48:27;14.50;52.20
16517;DHT22;8371;52.272;9.746;2023-05-10T02:50:55;14.40;52.20
16517;DHT22;8371;52.272;9.746;2023-05-10T02:53:27;14.40;52.40
16517;DHT22;8371;52.272;9.746;2023-05-10T02:55:52;14.40;52.50
16517;DHT22;8371;52.272;9.746;2023-05-10T02:58:20;14.30;52.60
16517;DHT22;8371;52.272;9.746;2023-05-10T03:00:46;14.30;52.80
16517;DHT22;8371;52.272;9.746;2023-05-10T03:03:12;14.30;52.90
16517;DHT22;8371;52.272;9.746;2023-05-10T03:05:38;14.30;53.00
16517;DHT22;8371;52.272;9.746;2023-05-10T03:08:04;14.30;53.10
16517;DHT22;8371;52.272;9.746;2023-05-10T03:10:31;14.30;53.00
16517;DHT22;8371;52.272;9.746;2023-05-10T03:15:54;14.20;53.10
16517;DHT22;8371;52.272;9.746;2023-05-10T03:18:22;14.20;53.00
16517;DHT22;8371;52.272;9.746;2023-05-10T03:20:50;14.20;53.10
16517;DHT22;8371;52.272;9.746;2023-05-10T03:23:26;14.20;53.10
16517;DHT22;8371;52.272;9.746;2023-05-10T03:25:50;14.20;53.40
16517;DHT22;8371;52.272;9.746;2023-05-10T03:28:18;14.30;53.40
16517;DHT22;8371;52.272;9.746;2023-05-10T03:30:44;14.20;53.60
16517;DHT22;8371;52.272;9.746;2023-05-10T03:33:10;14.30;53.70
16517;DHT22;8371;52.272;9.746;2023-05-10T03:35:36;14.30;53.70
16517;DHT22;8371;52.272;9.746;2023-05-10T03:38:02;14.30;53.70
16517;DHT22;8371;52.272;9.746;2023-05-10T03:40:28;14.40;53.80
16517;DHT22;8371;52.272;9.746;2023-05-10T03:42:59;14.40;54.00
16517;DHT22;8371;52.272;9.746;2023-05-10T03:45:25;14.40;54.00
16517;DHT22;8371;52.272;9.746;2023-05-10T03:47:50;14.40;53.90
16517;DHT22;8371;52.272;9.746;2023-05-10T03:50:16;14.40;54.10
16517;DHT22;8371;52.272;9.746;2023-05-10T03:52:42;14.50;54.30
16517;DHT22;8371;52.272;9.746;2023-05-10T03:55:08;14.50;54.40
16517;DHT22;8371;52.272;9.746;2023-05-10T03:57:34;14.50;54.30
16517;DHT22;8371;52.272;9.746;2023-05-10T04:00:01;14.60;54.30
16517;DHT22;8371;52.272;9.746;2023-05-10T04:02:26;14.60;54.40
16517;DHT22;8371;52.272;9.746;2023-05-10T04:04:52;14.60;54.40
16517;DHT22;8371;52.272;9.746;2023-05-10T04:07:18;14.70;54.50
16517;DHT22;8371;52.272;9.746;2023-05-10T04:09:43;14.70;54.70
16517;DHT22;8371;52.272;9.746;2023-05-10T04:12:09;14.80;54.90
16517;DHT22;8371;52.272;9.746;2023-05-10T04:14:35;14.80;54.90
16517;DHT22;8371;52.272;9.746;2023-05-10T04:17:00;14.80;55.00
16517;DHT22;8371;52.272;9.746;2023-05-10T04:19:30;14.90;55.10
16517;DHT22;8371;52.272;9.746;2023-05-10T04:21:56;14.90;55.20
16517;DHT22;8371;52.272;9.746;2023-05-10T04:24:21;14.90;55.20
16517;DHT22;8371;52.272;9.746;2023-05-10T04:26:47;14.90;55.30
16517;DHT22;8371;52.272;9.746;2023-05-10T04:29:13;14.90;55.40
16517;DHT22;8371;52.272;9.746;2023-05-10T04:31:38;15.00;55.40
16517;DHT22;8371;52.272;9.746;2023-05-10T04:34:04;15.00;55.40
16517;DHT22;8371;52.272;9.746;2023-05-10T04:36:30;15.00;55.50
16517;DHT22;8371;52.272;9.746;2023-05-10T04:38:58;15.10;55.50
16517;DHT22;8371;52.272;9.746;2023-05-10T04:41:23;15.10;55.50
16517;DHT22;8371;52.272;9.746;2023-05-10T04:43:50;15.10;55.50
16517;DHT22;8371;52.272;9.746;2023-05-10T04:46:16;15.10;55.50
16517;DHT22;8371;52.272;9.746;2023-05-10T04:48:42;15.10;55.60
16517;DHT22;8371;52.272;9.746;2023-05-10T04:51:07;15.10;55.80
16517;DHT22;8371;52.272;9.746;2023-05-10T04:53:33;15.20;55.70
16517;DHT22;8371;52.272;9.746;2023-05-10T04:55:59;15.20;55.90
16517;DHT22;8371;52.272;9.746;2023-05-10T04:58:24;15.20;56.00
16517;DHT22;8371;52.272;9.746;2023-05-10T05:00:50;15.20;56.20
16517;DHT22;8371;52.272;9.746;2023-05-10T05:03:16;15.20;56.30
16517;DHT22;8371;52.272;9.746;2023-05-10T05:05:41;15.20;56.40
16517;DHT22;8371;52.272;9.746;2023-05-10T05:08:07;15.20;56.50
16517;DHT22;8371;52.272;9.746;2023-05-10T05:10:33;15.20;56.50
16517;DHT22;8371;52.272;9.746;2023-05-10T05:12:58;15.20;56.70
16517;DHT22;8371;52.272;9.746;2023-05-10T05:15:24;15.20;56.80
16517;DHT22;8371;52.272;9.746;2023-05-10T05:17:50;15.20;57.50
16517;DHT22;8371;52.272;9.746;2023-05-10T05:20:15;15.30;57.00
16517;DHT22;8371;52.272;9.746;2023-05-10T05:22:41;15.30;57.20
16517;DHT22;8371;52.272;9.746;2023-05-10T05:25:07;15.30;57.30
16517;DHT22;8371;52.272;9.746;2023-05-10T05:27:33;15.30;57.40
16517;DHT22;8371;52.272;9.746;2023-05-10T05:29:59;15.20;57.40
16517;DHT22;8371;52.272;9.746;2023-05-10T05:32:25;15.20;57.50
16517;DHT22;8371;52.272;9.746;2023-05-10T05:34:51;15.30;57.80
16517;DHT22;8371;52.272;9.746;2023-05-10T05:37:18;15.30;57.80
16517;DHT22;8371;52.272;9.746;2023-05-10T05:39:45;15.30;57.90
16517;DHT22;8371;52.272;9.746;2023-05-10T05:42:12;15.40;58.10
16517;DHT22;8371;52.272;9.746;2023-05-10T05:44:38;15.40;58.10
16517;DHT22;8371;52.272;9.746;2023-05-10T05:47:04;15.40;58.20
16517;DHT22;8371;52.272;9.746;2023-05-10T05:49:31;15.50;58.40
16517;DHT22;8371;52.272;9.746;2023-05-10T05:52:04;15.50;58.50
16517;DHT22;8371;52.272;9.746;2023-05-10T05:54:27;15.50;58.50
16517;DHT22;8371;52.272;9.746;2023-05-10T05:56:56;15.50;58.60
16517;DHT22;8371;52.272;9.746;2023-05-10T05:59:22;15.60;58.70
16517;DHT22;8371;52.272;9.746;2023-05-10T06:01:48;15.60;58.70
16517;DHT22;8371;52.272;9.746;2023-05-10T06:04:14;15.60;58.70
16517;DHT22;8371;52.272;9.746;2023-05-10T06:06:40;15.70;58.80
16517;DHT22;8371;52.272;9.746;2023-05-10T06:09:06;15.70;58.80
16517;DHT22;8371;52.272;9.746;2023-05-10T06:11:31;15.80;58.90
16517;DHT22;8371;52.272;9.746;2023-05-10T06:13:58;15.80;59.00
16517;DHT22;8371;52.272;9.746;2023-05-10T06:16:24;15.80;59.00
16517;DHT22;8371;52.272;9.746;2023-05-10T06:18:50;15.80;59.10
16517;DHT22;8371;52.272;9.746;2023-05-10T06:21:16;15.90;59.30
16517;DHT22;8371;52.272;9.746;2023-05-10T06:23:42;16.00;59.30
16517;DHT22;8371;52.272;9.746;2023-05-10T06:26:07;16.00;59.40
16517;DHT22;8371;52.272;9.746;2023-05-10T06:28:33;16.10;59.40
16517;DHT22;8371;52.272;9.746;2023-05-10T06:30:59;16.10;59.40
16517;DHT22;8371;52.272;9.746;2023-05-10T06:33:25;16.10;59.40
16517;DHT22;8371;52.272;9.746;2023-05-10T06:35:51;16.10;59.40
16517;DHT22;8371;52.272;9.746;2023-05-10T06:38:17;16.20;59.50
16517;DHT22;8371;52.272;9.746;2023-05-10T06:40:43;16.20;59.50
16517;DHT22;8371;52.272;9.746;2023-05-10T06:43:10;16.30;59.70
16517;DHT22;8371;52.272;9.746;2023-05-10T06:45:35;16.20;59.70
16517;DHT22;8371;52.272;9.746;2023-05-10T06:48:02;16.30;59.70
16517;DHT22;8371;52.272;9.746;2023-05-10T06:50:28;16.30;60.00
16517;DHT22;8371;52.272;9.746;2023-05-10T06:52:53;16.40;60.20
16517;DHT22;8371;52.272;9.746;2023-05-10T06:55:19;16.40;60.30
16517;DHT22;8371;52.272;9.746;2023-05-10T06:57:45;16.50;60.40
16517;DHT22;8371;52.272;9.746;2023-05-10T07:00:11;16.60;60.50
16517;DHT22;8371;52.272;9.746;2023-05-10T07:02:37;16.60;60.70
16517;DHT22;8371;52.272;9.746;2023-05-10T07:05:03;16.70;60.80
16517;DHT22;8371;52.272;9.746;2023-05-10T07:07:28;16.70;60.80
16517;DHT22;8371;52.272;9.746;2023-05-10T07:09:54;16.80;60.80
16517;DHT22;8371;52.272;9.746;2023-05-10T07:12:21;16.90;60.80
16517;DHT22;8371;52.272;9.746;2023-05-10T07:14:47;16.90;60.80
16517;DHT22;8371;52.272;9.746;2023-05-10T07:17:13;17.00;61.00
16517;DHT22;8371;52.272;9.746;2023-05-10T07:19:38;17.10;61.10
16517;DHT22;8371;52.272;9.746;2023-05-10T07:22:04;17.20;61.20
16517;DHT22;8371;52.272;9.746;2023-05-10T07:24:30;17.20;61.20
16517;DHT22;8371;52.272;9.746;2023-05-10T07:26:56;17.30;61.10
16517;DHT22;8371;52.272;9.746;2023-05-10T07:29:22;17.30;60.90
16517;DHT22;8371;52.272;9.746;2023-05-10T07:31:48;17.40;60.90
16517;DHT22;8371;52.272;9.746;2023-05-10T07:34:14;17.40;60.80
16517;DHT22;8371;52.272;9.746;2023-05-10T07:36:39;17.40;60.90
16517;DHT22;8371;52.272;9.746;2023-05-10T07:39:05;17.40;61.10
16517;DHT22;8371;52.272;9.746;2023-05-10T07:41:31;17.50;61.20
16517;DHT22;8371;52.272;9.746;2023-05-10T07:43:56;17.50;61.20
16517;DHT22;8371;52.272;9.746;2023-05-10T07:46:22;17.50;61.40
16517;DHT22;8371;52.272;9.746;2023-05-10T07:48:48;17.50;61.50
16517;DHT22;8371;52.272;9.746;2023-05-10T07:51:13;17.60;61.70
16517;DHT22;8371;52.272;9.746;2023-05-10T07:53:39;17.60;61.70
16517;DHT22;8371;52.272;9.746;2023-05-10T07:56:24;17.70;61.70
16517;DHT22;8371;52.272;9.746;2023-05-10T07:58:51;17.70;61.80
16517;DHT22;8371;52.272;9.746;2023-05-10T08:01:17;17.80;61.80
16517;DHT22;8371;52.272;9.746;2023-05-10T08:03:43;17.80;61.70
16517;DHT22;8371;52.272;9.746;2023-05-10T08:06:09;17.80;62.00
16517;DHT22;8371;52.272;9.746;2023-05-10T08:08:34;17.80;61.70
16517;DHT22;8371;52.272;9.746;2023-05-10T08:11:00;17.80;61.90
16517;DHT22;8371;52.272;9.746;2023-05-10T08:13:26;17.80;62.00
16517;DHT22;8371;52.272;9.746;2023-05-10T08:15:51;17.90;62.20
16517;DHT22;8371;52.272;9.746;2023-05-10T08:18:19;17.80;61.90
16517;DHT22;8371;52.272;9.746;2023-05-10T08:20:45;17.80;61.60
16517;DHT22;8371;52.272;9.746;2023-05-10T08:23:18;17.80;62.00
16517;DHT22;8371;52.272;9.746;2023-05-10T08:25:44;17.80;62.10
16517;DHT22;8371;52.272;9.746;2023-05-10T08:28:10;17.80;62.20
16517;DHT22;8371;52.272;9.746;2023-05-10T08:30:35;17.80;62.50
16517;DHT22;8371;52.272;9.746;2023-05-10T08:33:01;17.80;62.80
16517;DHT22;8371;52.272;9.746;2023-05-10T08:35:27;17.80;63.20
16517;DHT22;8371;52.272;9.746;2023-05-10T08:37:52;17.90;63.30
16517;DHT22;8371;52.272;9.746;2023-05-10T08:40:19;18.00;63.30
16517;DHT22;8371;52.272;9.746;2023-05-10T08:42:50;18.10;63.70
16517;DHT22;8371;52.272;9.746;2023-05-10T08:45:15;18.10;63.70
16517;DHT22;8371;52.272;9.746;2023-05-10T08:47:42;18.40;63.30
16517;DHT22;8371;52.272;9.746;2023-05-10T08:50:08;18.30;63.30
16517;DHT22;8371;52.272;9.746;2023-05-10T08:52:37;18.40;63.10
16517;DHT22;8371;52.272;9.746;2023-05-10T08:55:05;18.50;63.20
16517;DHT22;8371;52.272;9.746;2023-05-10T08:57:31;18.60;63.20
16517;DHT22;8371;52.272;9.746;2023-05-10T08:59:57;18.70;63.20
16517;DHT22;8371;52.272;9.746;2023-05-10T09:02:25;18.70;63.00
16517;DHT22;8371;52.272;9.746;2023-05-10T09:04:51;18.70;62.70
16517;DHT22;8371;52.272;9.746;2023-05-10T09:07:16;18.80;62.80
16517;DHT22;8371;52.272;9.746;2023-05-10T09:09:43;18.90;62.50
16517;DHT22;8371;52.272;9.746;2023-05-10T09:12:09;18.90;62.30
16517;DHT22;8371;52.272;9.746;2023-05-10T09:14:37;18.90;62.20
16517;DHT22;8371;52.272;9.746;2023-05-10T09:17:04;18.90;62.00
16517;DHT22;8371;52.272;9.746;2023-05-10T09:19:29;19.00;61.90
16517;DHT22;8371;52.272;9.746;2023-05-10T09:21:55;19.00;62.00
16517;DHT22;8371;52.272;9.746;2023-05-10T09:24:26;19.00;62.00
16517;DHT22;8371;52.272;9.746;2023-05-10T09:26:52;19.00;62.20
16517;DHT22;8371;52.272;9.746;2023-05-10T09:29:18;19.00;62.00
16517;DHT22;8371;52.272;9.746;2023-05-10T09:31:50;19.00;62.00
16517;DHT22;8371;52.272;9.746;2023-05-10T09:34:15;19.00;62.10
16517;DHT22;8371;52.272;9.746;2023-05-10T09:36:56;19.10;62.30
16517;DHT22;8371;52.272;9.746;2023-05-10T09:39:20;19.10;62.20
16517;DHT22;8371;52.272;9.746;2023-05-10T09:41:47;19.20;62.00
16517;DHT22;8371;52.272;9.746;2023-05-10T09:44:16;19.20;62.10
16517;DHT22;8371;52.272;9.746;2023-05-10T09:46:43;19.20;62.30
16517;DHT22;8371;52.272;9.746;2023-05-10T09:49:09;19.30;62.30
16517;DHT22;8371;52.272;9.746;2023-05-10T09:51:36;19.40;62.40
16517;DHT22;8371;52.272;9.746;2023-05-10T09:54:10;19.50;62.40
16517;DHT22;8371;52.272;9.746;2023-05-10T09:56:36;19.60;62.50
16517;DHT22;8371;52.272;9.746;2023-05-10T09:59:05;19.70;62.30
16517;DHT22;8371;52.272;9.746;2023-05-10T10:01:31;19.80;62.20
16517;DHT22;8371;52.272;9.746;2023-05-10T10:03:57;19.90;62.20
16517;DHT22;8371;52.272;9.746;2023-05-10T10:06:24;20.00;62.00
16517;DHT22;8371;52.272;9.746;2023-05-10T10:08:51;20.00;61.90
16517;DHT22;8371;52.272;9.746;2023-05-10T10:11:17;20.10;61.90
16517;DHT22;8371;52.272;9.746;2023-05-10T10:13:43;20.20;61.90
16517;DHT22;8371;52.272;9.746;2023-05-10T10:16:08;20.30;61.80
16517;DHT22;8371;52.272;9.746;2023-05-10T10:18:36;20.40;61.80
16517;DHT22;8371;52.272;9.746;2023-05-10T10:21:07;20.50;61.80
16517;DHT22;8371;52.272;9.746;2023-05-10T10:23:35;20.60;61.80
16517;DHT22;8371;52.272;9.746;2023-05-10T10:26:03;20.80;61.60
16517;DHT22;8371;52.272;9.746;2023-05-10T10:31:22;21.00;61.40
16517;DHT22;8371;52.272;9.746;2023-05-10T10:33:55;21.00;61.30
16517;DHT22;8371;52.272;9.746;2023-05-10T10:36:20;21.20;61.40
16517;DHT22;8371;52.272;9.746;2023-05-10T10:41:33;21.40;60.90
16517;DHT22;8371;52.272;9.746;2023-05-10T10:47:21;21.70;60.40
16517;DHT22;8371;52.272;9.746;2023-05-10T10:49:43;21.90;60.40
16517;DHT22;8371;52.272;9.746;2023-05-10T10:52:33;22.10;60.10
16517;DHT22;8371;52.272;9.746;2023-05-10T10:55:09;22.20;60.10
16517;DHT22;8371;52.272;9.746;2023-05-10T10:57:55;22.50;60.00
16517;DHT22;8371;52.272;9.746;2023-05-10T11:00:25;22.60;59.70
16517;DHT22;8371;52.272;9.746;2023-05-10T11:03:06;22.80;59.60
16517;DHT22;8371;52.272;9.746;2023-05-10T11:05:36;23.00;59.30
16517;DHT22;8371;52.272;9.746;2023-05-10T11:08:25;23.10;58.90
16517;DHT22;8371;52.272;9.746;2023-05-10T11:11:02;23.20;58.80
16517;DHT22;8371;52.272;9.746;2023-05-10T11:13:38;23.40;58.60
16517;DHT22;8371;52.272;9.746;2023-05-10T11:16:14;23.50;58.70
16517;DHT22;8371;52.272;9.746;2023-05-10T11:18:45;23.70;58.70
16517;DHT22;8371;52.272;9.746;2023-05-10T11:21:09;23.90;58.40
16517;DHT22;8371;52.272;9.746;2023-05-10T11:26:11;24.20;58.10
16517;DHT22;8371;52.272;9.746;2023-05-10T11:28:48;24.40;57.90
16517;DHT22;8371;52.272;9.746;2023-05-10T11:31:19;24.60;57.60
16517;DHT22;8371;52.272;9.746;2023-05-10T11:33:43;24.80;57.40
16517;DHT22;8371;52.272;9.746;2023-05-10T11:36:24;25.00;57.40
16517;DHT22;8371;52.272;9.746;2023-05-10T11:38:51;25.10;56.90
16517;DHT22;8371;52.272;9.746;2023-05-10T11:41:18;25.30;56.70
16517;DHT22;8371;52.272;9.746;2023-05-10T11:43:47;25.40;56.40
16517;DHT22;8371;52.272;9.746;2023-05-10T11:46:14;25.50;56.00
16517;DHT22;8371;52.272;9.746;2023-05-10T11:48:41;25.60;55.40
16517;DHT22;8371;52.272;9.746;2023-05-10T11:51:08;25.70;55.50
16517;DHT22;8371;52.272;9.746;2023-05-10T11:53:34;25.80;55.40
16517;DHT22;8371;52.272;9.746;2023-05-10T11:56:10;26.00;55.40
16517;DHT22;8371;52.272;9.746;2023-05-10T11:58:37;26.10;55.30
16517;DHT22;8371;52.272;9.746;2023-05-10T12:01:05;26.20;55.00
16517;DHT22;8371;52.272;9.746;2023-05-10T12:03:31;26.30;54.80
16517;DHT22;8371;52.272;9.746;2023-05-10T12:05:58;26.40;54.70
16517;DHT22;8371;52.272;9.746;2023-05-10T12:08:26;26.40;54.40
16517;DHT22;8371;52.272;9.746;2023-05-10T12:10:53;26.40;54.10
16517;DHT22;8371;52.272;9.746;2023-05-10T12:13:20;26.50;54.00
16517;DHT22;8371;52.272;9.746;2023-05-10T12:15:46;26.50;53.90
16517;DHT22;8371;52.272;9.746;2023-05-10T12:18:13;26.40;53.60
16517;DHT22;8371;52.272;9.746;2023-05-10T12:20:40;26.40;53.70
16517;DHT22;8371;52.272;9.746;2023-05-10T12:23:08;26.40;53.70
16517;DHT22;8371;52.272;9.746;2023-05-10T12:25:36;26.30;53.70
16517;DHT22;8371;52.272;9.746;2023-05-10T12:28:04;26.30;54.00
16517;DHT22;8371;52.272;9.746;2023-05-10T12:30:32;26.20;54.10
16517;DHT22;8371;52.272;9.746;2023-05-10T12:33:10;26.20;54.10
16517;DHT22;8371;52.272;9.746;2023-05-10T12:35:44;26.20;54.00
16517;DHT22;8371;52.272;9.746;2023-05-10T12:41:00;26.30;54.30
16517;DHT22;8371;52.272;9.746;2023-05-10T12:43:26;26.40;54.10
16517;DHT22;8371;52.272;9.746;2023-05-10T12:45:52;26.40;54.10
16517;DHT22;8371;52.272;9.746;2023-05-10T12:48:18;26.60;54.60
16517;DHT22;8371;52.272;9.746;2023-05-10T12:50:44;26.80;54.30
16517;DHT22;8371;52.272;9.746;2023-05-10T12:53:09;26.90;53.90
16517;DHT22;8371;52.272;9.746;2023-05-10T12:55:35;27.00;53.40
16517;DHT22;8371;52.272;9.746;2023-05-10T12:58:01;27.20;53.40
16517;DHT22;8371;52.272;9.746;2023-05-10T13:00:26;27.30;53.40
16517;DHT22;8371;52.272;9.746;2023-05-10T13:02:52;27.40;53.00
16517;DHT22;8371;52.272;9.746;2023-05-10T13:05:18;27.60;53.10
16517;DHT22;8371;52.272;9.746;2023-05-10T13:07:44;27.70;52.80
16517;DHT22;8371;52.272;9.746;2023-05-10T13:10:10;27.90;52.80
16517;DHT22;8371;52.272;9.746;2023-05-10T13:12:36;28.10;52.30
16517;DHT22;8371;52.272;9.746;2023-05-10T13:15:02;28.20;51.90
16517;DHT22;8371;52.272;9.746;2023-05-10T13:17:29;28.30;51.20
16517;DHT22;8371;52.272;9.746;2023-05-10T13:19:54;28.40;51.30
16517;DHT22;8371;52.272;9.746;2023-05-10T13:22:20;28.40;50.90
16517;DHT22;8371;52.272;9.746;2023-05-10T13:24:46;28.40;50.50
16517;DHT22;8371;52.272;9.746;2023-05-10T13:27:11;28.40;50.30
16517;DHT22;8371;52.272;9.746;2023-05-10T13:29:37;28.40;50.30
16517;DHT22;8371;52.272;9.746;2023-05-10T13:32:03;28.30;50.50
16517;DHT22;8371;52.272;9.746;2023-05-10T13:34:29;28.40;50.40
16517;DHT22;8371;52.272;9.746;2023-05-10T13:36:54;28.40;50.50
16517;DHT22;8371;52.272;9.746;2023-05-10T13:39:21;28.40;50.60
16517;DHT22;8371;52.272;9.746;2023-05-10T13:41:47;28.40;50.70
16517;DHT22;8371;52.272;9.746;2023-05-10T13:44:14;28.40;50.40
16517;DHT22;8371;52.272;9.746;2023-05-10T13:46:41;28.30;50.20
16517;DHT22;8371;52.272;9.746;2023-05-10T13:49:08;28.30;50.20
16517;DHT22;8371;52.272;9.746;2023-05-10T13:51:35;28.30;50.10
16517;DHT22;8371;52.272;9.746;2023-05-10T13:54:02;28.30;50.20
16517;DHT22;8371;52.272;9.746;2023-05-10T13:56:27;28.20;50.30
16517;DHT22;8371;52.272;9.746;2023-05-10T13:58:53;28.20;50.20
16517;DHT22;8371;52.272;9.746;2023-05-10T14:01:19;28.20;50.00
16517;DHT22;8371;52.272;9.746;2023-05-10T14:03:45;28.20;50.10
16517;DHT22;8371;52.272;9.746;2023-05-10T14:06:10;28.20;50.30
16517;DHT22;8371;52.272;9.746;2023-05-10T14:08:36;28.10;50.20
16517;DHT22;8371;52.272;9.746;2023-05-10T14:11:02;28.10;49.90
16517;DHT22;8371;52.272;9.746;2023-05-10T14:13:28;28.00;50.00
16517;DHT22;8371;52.272;9.746;2023-05-10T14:15:54;28.00;49.90
16517;DHT22;8371;52.272;9.746;2023-05-10T14:18:20;28.00;49.90
16517;DHT22;8371;52.272;9.746;2023-05-10T14:20:46;27.90;49.90
16517;DHT22;8371;52.272;9.746;2023-05-10T14:23:12;27.90;50.00
16517;DHT22;8371;52.272;9.746;2023-05-10T14:25:40;27.90;50.00
16517;DHT22;8371;52.272;9.746;2023-05-10T14:28:05;27.80;50.00
16517;DHT22;8371;52.272;9.746;2023-05-10T14:30:31;27.80;50.10
16517;DHT22;8371;52.272;9.746;2023-05-10T14:32:58;27.70;50.00
16517;DHT22;8371;52.272;9.746;2023-05-10T14:35:24;27.70;49.90
16517;DHT22;8371;52.272;9.746;2023-05-10T14:37:49;27.70;50.00
16517;DHT22;8371;52.272;9.746;2023-05-10T14:40:15;27.70;49.80
16517;DHT22;8371;52.272;9.746;2023-05-10T14:42:42;27.70;49.60
16517;DHT22;8371;52.272;9.746;2023-05-10T14:45:09;27.60;49.20
16517;DHT22;8371;52.272;9.746;2023-05-10T14:47:35;27.50;49.20
16517;DHT22;8371;52.272;9.746;2023-05-10T14:50:00;27.50;49.20
16517;DHT22;8371;52.272;9.746;2023-05-10T14:52:27;27.40;49.20
16517;DHT22;8371;52.272;9.746;2023-05-10T14:54:53;27.30;49.30
16517;DHT22;8371;52.272;9.746;2023-05-10T14:57:19;27.20;49.30
16517;DHT22;8371;52.272;9.746;2023-05-10T14:59:45;27.10;49.00
16517;DHT22;8371;52.272;9.746;2023-05-10T15:02:10;27.00;48.90
16517;DHT22;8371;52.272;9.746;2023-05-10T15:04:36;26.80;48.80
16517;DHT22;8371;52.272;9.746;2023-05-10T15:07:02;26.60;48.60
16517;DHT22;8371;52.272;9.746;2023-05-10T15:09:28;26.40;48.60
16517;DHT22;8371;52.272;9.746;2023-05-10T15:11:54;26.20;48.80
16517;DHT22;8371;52.272;9.746;2023-05-10T15:14:20;25.90;48.70
16517;DHT22;8371;52.272;9.746;2023-05-10T15:16:45;25.60;48.80
16517;DHT22;8371;52.272;9.746;2023-05-10T15:19:12;25.40;48.90
16517;DHT22;8371;52.272;9.746;2023-05-10T15:21:37;25.20;49.10
16517;DHT22;8371;52.272;9.746;2023-05-10T15:24:09;24.90;49.30
16517;DHT22;8371;52.272;9.746;2023-05-10T15:26:32;24.70;49.90
16517;DHT22;8371;52.272;9.746;2023-05-10T15:28:58;24.40;50.30
16517;DHT22;8371;52.272;9.746;2023-05-10T15:31:23;24.10;50.30
16517;DHT22;8371;52.272;9.746;2023-05-10T15:33:49;23.80;50.40
16517;DHT22;8371;52.272;9.746;2023-05-10T15:36:15;23.40;50.70
16517;DHT22;8371;52.272;9.746;2023-05-10T15:38:42;23.00;51.50
16517;DHT22;8371;52.272;9.746;2023-05-10T15:41:08;22.50;51.80
16517;DHT22;8371;52.272;9.746;2023-05-10T15:43:34;22.00;51.80
16517;DHT22;8371;52.272;9.746;2023-05-10T15:45:59;21.50;51.70
16517;DHT22;8371;52.272;9.746;2023-05-10T15:48:25;21.20;52.50
16517;DHT22;8371;52.272;9.746;2023-05-10T15:50:51;20.70;53.40
16517;DHT22;8371;52.272;9.746;2023-05-10T15:53:17;20.30;55.00
16517;DHT22;8371;52.272;9.746;2023-05-10T15:55:42;20.00;55.10
16517;DHT22;8371;52.272;9.746;2023-05-10T15:58:08;19.60;55.30
16517;DHT22;8371;52.272;9.746;2023-05-10T16:00:34;19.40;55.70
16517;DHT22;8371;52.272;9.746;2023-05-10T16:03:00;19.20;56.40
16517;DHT22;8371;52.272;9.746;2023-05-10T16:05:25;18.90;56.50